sensor_id;sensor_type;location;lat;lon;timestamp;temperature;humidity
22852;DHT22;11592;45.460;9.240;2023-01-15T00:01:35;8.30;99.90
22852;DHT22;11592;45.460;9.240;2023-01-15T00:04:05;8.40;99.90
22852;DHT22;11592;45.460;9.240;2023-01-15T00:06:38;8.30;99.90
22852;DHT22;11592;45.460;9.240;2023-01-15T00:09:06;8.20;99.90
22852;DHT22;11592;45.460;9.240;2023-01-15T00:11:33;8.10;99.90
22852;DHT22;11592;45.460;9.240;2023-01-15T00:14:00;8.20;99.90
22852;DHT22;11592;45.460;9.240;2023-01-15T00:16:27;8.40;99.90
22852;DHT22;11592;45.460;9.240;2023-01-15T00:18:56;8.40;99.90
22852;DHT22;11592;45.460;9.240;2023-01-15T00:21:24;8.40;99.90
22852;DHT22;11592;45.460;9.240;2023-01-15T00:23:52;8.40;99.90
22852;DHT22;11592;45.460;9.240;2023-01-15T00:26:38;8.30;99.90
22852;DHT22;11592;45.460;9.240;2023-01-15T00:29:24;8.20;99.90
22852;DHT22;11592;45.460;9.240;2023-01-15T00:32:00;8.10;99.90
22852;DHT22;11592;45.460;9.240;2023-01-15T00:34:28;7.90;99.90
22852;DHT22;11592;45.460;9.240;2023-01-15T00:36:56;7.90;99.90
22852;DHT22;11592;45.460;9.240;2023-01-15T00:39:23;7.80;99.90
22852;DHT22;11592;45.460;9.240;2023-01-15T00:41:51;7.80;99.90
22852;DHT22;11592;45.460;9.240;2023-01-15T00:44:18;7.70;99.90
22852;DHT22;11592;45.460;9.240;2023-01-15T00:46:45;7.80;99.90
22852;DHT22;11592;45.460;9.240;2023-01-15T00:49:13;7.70;99.90
22852;DHT22;11592;45.460;9.240;2023-01-15T00:51:40;7.70;99.90
22852;DHT22;11592;45.460;9.240;2023-01-15T00:54:07;7.60;99.90
22852;DHT22;11592;45.460;9.240;2023-01-15T00:56:34;7.60;99.90
22852;DHT22;11592;45.460;9.240;2023-01-15T00:59:03;7.60;99.90
22852;DHT22;11592;45.460;9.240;2023-01-15T01:01:30;7.60;99.90
22852;DHT22;11592;45.460;9.240;2023-01-15T01:03:59;7.50;99.90
22852;DHT22;11592;45.460;9.240;2023-01-15T01:06:26;7.50;99.90
22852;DHT22;11592;45.460;9.240;2023-01-15T01:08:52;7.50;99.90
22852;DHT22;11592;45.460;9.240;2023-01-15T01:11:22;7.50;99.90
22852;DHT22;11592;45.460;9.240;2023-01-15T01:13:53;7.50;99.90
22852;DHT22;11592;45.460;9.240;2023-01-15T01:16:29;7.50;99.90
22852;DHT22;11592;45.460;9.240;2023-01-15T01:18:58;7.50;99.90
22852;DHT22;11592;45.460;9.240;2023-01-15T01:21:26;7.50;99.90
22852;DHT22;11592;45.460;9.240;2023-01-15T01:23:53;7.50;99.90
22852;DHT22;11592;45.460;9.240;2023-01-15T01:26:20;7.50;99.90
22852;DHT22;11592;45.460;9.240;2023-01-15T01:28:51;7.60;99.90
22852;DHT22;11592;45.460;9.240;2023-01-15T01:31:18;7.60;99.90
22852;DHT22;11592;45.460;9.240;2023-01-15T01:33:48;7.60;99.90
22852;DHT22;11592;45.460;9.240;2023-01-15T01:36:15;7.50;99.90
22852;DHT22;11592;45.460;9.240;2023-01-15T01:38:42;7.50;99.90
22852;DHT22;11592;45.460;9.240;2023-01-15T01:41:09;7.60;99.90
22852;DHT22;11592;45.460;9.240;2023-01-15T01:43:57;7.60;99.90
22852;DHT22;11592;45.460;9.240;2023-01-15T01:46:26;7.60;99.90
22852;DHT22;11592;45.460;9.240;2023-01-15T01:48:56;7.60;99.90
22852;DHT22;11592;45.460;9.240;2023-01-15T01:51:26;7.70;99.90
22852;DHT22;11592;45.460;9.240;2023-01-15T01:53:55;7.80;99.90
22852;DHT22;11592;45.460;9.240;2023-01-15T01:56:23;7.80;99.90
22852;DHT22;11592;45.460;9.240;2023-01-15T01:58:53;7.80;99.90
22852;DHT22;11592;45.460;9.240;2023-01-15T02:01:23;8.00;99.90
22852;DHT22;11592;45.460;9.240;2023-01-15T02:03:52;8.10;99.90
22852;DHT22;11592;45.460;9.240;2023-01-15T02:06:18;8.20;99.90
22852;DHT22;11592;45.460;9.240;2023-01-15T02:08:45;8.10;99.90
22852;DHT22;11592;45.460;9.240;2023-01-15T02:11:16;8.10;99.90
22852;DHT22;11592;45.460;9.240;2023-01-15T02:17:01;8.30;99.90
22852;DHT22;11592;45.460;9.240;2023-01-15T02:25:05;8.50;99.90
22852;DHT22;11592;45.460;9.240;2023-01-15T02:27:36;8.60;99.90
22852;DHT22;11592;45.460;9.240;2023-01-15T02:30:28;8.70;99.90
22852;DHT22;11592;45.460;9.240;2023-01-15T02:33:07;8.70;99.90
22852;DHT22;11592;45.460;9.240;2023-01-15T02:35:54;8.70;99.90
22852;DHT22;11592;45.460;9.240;2023-01-15T02:38:26;8.80;99.90
22852;DHT22;11592;45.460;9.240;2023-01-15T02:40:57;8.70;99.90
22852;DHT22;11592;45.460;9.240;2023-01-15T02:43:28;8.60;99.90
22852;DHT22;11592;45.460;9.240;2023-01-15T02:45:57;8.60;99.90
22852;DHT22;11592;45.460;9.240;2023-01-15T02:48:28;8.60;99.90
22852;DHT22;11592;45.460;9.240;2023-01-15T02:51:06;8.40;99.90
22852;DHT22;11592;45.460;9.240;2023-01-15T02:53:35;8.50;99.90
22852;DHT22;11592;45.460;9.240;2023-01-15T02:56:08;8.50;99.90
22852;DHT22;11592;45.460;9.240;2023-01-15T02:58:38;8.40;99.90
22852;DHT22;11592;45.460;9.240;2023-01-15T03:01:13;8.30;99.90
22852;DHT22;11592;45.460;9.240;2023-01-15T03:04:06;8.20;99.90
22852;DHT22;11592;45.460;9.240;2023-01-15T03:06:48;8.10;99.90
22852;DHT22;11592;45.460;9.240;2023-01-15T03:09:18;8.00;99.90
22852;DHT22;11592;45.460;9.240;2023-01-15T03:12:03;8.00;99.90
22852;DHT22;11592;45.460;9.240;2023-01-15T03:14:37;8.00;99.90
22852;DHT22;11592;45.460;9.240;2023-01-15T03:17:23;8.00;99.90
22852;DHT22;11592;45.460;9.240;2023-01-15T03:20:00;8.00;99.90
22852;DHT22;11592;45.460;9.240;2023-01-15T03:22:34;8.10;99.90
22852;DHT22;11592;45.460;9.240;2023-01-15T03:25:06;8.10;99.90
22852;DHT22;11592;45.460;9.240;2023-01-15T03:27:35;8.20;99.90
22852;DHT22;11592;45.460;9.240;2023-01-15T03:30:07;8.20;99.90
22852;DHT22;11592;45.460;9.240;2023-01-15T03:32:34;8.20;99.90
22852;DHT22;11592;45.460;9.240;2023-01-15T03:35:02;8.20;99.90
22852;DHT22;11592;45.460;9.240;2023-01-15T03:37:30;8.10;99.90
22852;DHT22;11592;45.460;9.240;2023-01-15T03:39:58;8.10;99.90
22852;DHT22;11592;45.460;9.240;2023-01-15T03:50:39;8.10;99.90
22852;DHT22;11592;45.460;9.240;2023-01-15T03:53:20;8.10;99.90
22852;DHT22;11592;45.460;9.240;2023-01-15T03:56:00;8.10;99.90
22852;DHT22;11592;45.460;9.240;2023-01-15T03:58:51;8.10;99.90
22852;DHT22;11592;45.460;9.240;2023-01-15T04:01:23;8.10;99.90
22852;DHT22;11592;45.460;9.240;2023-01-15T04:03:53;8.00;99.90
22852;DHT22;11592;45.460;9.240;2023-01-15T04:06:21;7.90;99.90
22852;DHT22;11592;45.460;9.240;2023-01-15T04:08:48;7.90;99.90
22852;DHT22;11592;45.460;9.240;2023-01-15T04:11:21;7.90;99.90
22852;DHT22;11592;45.460;9.240;2023-01-15T04:13:49;7.90;99.90
22852;DHT22;11592;45.460;9.240;2023-01-15T04:16:29;7.90;99.90
22852;DHT22;11592;45.460;9.240;2023-01-15T04:18:56;7.90;99.90
22852;DHT22;11592;45.460;9.240;2023-01-15T04:21:23;7.90;99.90
22852;DHT22;11592;45.460;9.240;2023-01-15T04:23:50;7.80;99.90
22852;DHT22;11592;45.460;9.240;2023-01-15T04:26:17;7.80;99.90
22852;DHT22;11592;45.460;9.240;2023-01-15T04:28:44;7.80;99.90
22852;DHT22;11592;45.460;9.240;2023-01-15T04:31:11;7.80;99.90
22852;DHT22;11592;45.460;9.240;2023-01-15T04:33:38;7.90;99.90
22852;DHT22;11592;45.460;9.240;2023-01-15T04:36:05;7.90;99.90
22852;DHT22;11592;45.460;9.240;2023-01-15T04:38:32;8.20;99.90
22852;DHT22;11592;45.460;9.240;2023-01-15T04:41:03;8.00;99.90
22852;DHT22;11592;45.460;9.240;2023-01-15T04:43:49;8.00;99.90
22852;DHT22;11592;45.460;9.240;2023-01-15T04:46:37;7.90;99.90
22852;DHT22;11592;45.460;9.240;2023-01-15T04:49:05;7.90;99.90
22852;DHT22;11592;45.460;9.240;2023-01-15T04:51:33;7.80;99.90
22852;DHT22;11592;45.460;9.240;2023-01-15T04:54:02;7.80;99.90
22852;DHT22;11592;45.460;9.240;2023-01-15T04:56:30;7.80;99.90
22852;DHT22;11592;45.460;9.240;2023-01-15T04:59:00;7.90;99.90
22852;DHT22;11592;45.460;9.240;2023-01-15T05:01:27;7.90;99.90
22852;DHT22;11592;45.460;9.240;2023-01-15T05:03:54;7.90;99.90
22852;DHT22;11592;45.460;9.240;2023-01-15T05:06:24;7.90;99.90
22852;DHT22;11592;45.460;9.240;2023-01-15T05:08:51;7.80;99.90
22852;DHT22;11592;45.460;9.240;2023-01-15T05:11:18;7.70;99.90
22852;DHT22;11592;45.460;9.240;2023-01-15T05:13:45;7.70;99.90
22852;DHT22;11592;45.460;9.240;2023-01-15T05:16:21;7.70;99.90
22852;DHT22;11592;45.460;9.240;2023-01-15T05:18:51;7.80;99.90
22852;DHT22;11592;45.460;9.240;2023-01-15T05:21:33;7.90;99.90
22852;DHT22;11592;45.460;9.240;2023-01-15T05:24:02;7.90;99.90
22852;DHT22;11592;45.460;9.240;2023-01-15T05:26:30;7.90;99.90
22852;DHT22;11592;45.460;9.240;2023-01-15T05:28:59;7.90;99.90
22852;DHT22;11592;45.460;9.240;2023-01-15T05:31:26;7.80;99.90
22852;DHT22;11592;45.460;9.240;2023-01-15T05:33:54;7.80;99.90
22852;DHT22;11592;45.460;9.240;2023-01-15T05:36:26;7.70;99.90
22852;DHT22;11592;45.460;9.240;2023-01-15T05:38:55;7.70;99.90
22852;DHT22;11592;45.460;9.240;2023-01-15T05:41:23;7.70;99.90
22852;DHT22;11592;45.460;9.240;2023-01-15T05:44:10;7.70;99.90
22852;DHT22;11592;45.460;9.240;2023-01-15T05:46:39;7.70;99.90
22852;DHT22;11592;45.460;9.240;2023-01-15T05:49:10;7.70;99.90
22852;DHT22;11592;45.460;9.240;2023-01-15T05:51:37;7.70;99.90
22852;DHT22;11592;45.460;9.240;2023-01-15T05:54:06;7.70;99.90
22852;DHT22;11592;45.460;9.240;2023-01-15T05:56:37;7.70;99.90
22852;DHT22;11592;45.460;9.240;2023-01-15T05:59:04;7.70;99.90
22852;DHT22;11592;45.460;9.240;2023-01-15T06:01:31;7.60;99.90
22852;DHT22;11592;45.460;9.240;2023-01-15T06:04:00;7.60;99.90
22852;DHT22;11592;45.460;9.240;2023-01-15T06:06:28;7.60;99.90
22852;DHT22;11592;45.460;9.240;2023-01-15T06:08:54;7.70;99.90
22852;DHT22;11592;45.460;9.240;2023-01-15T06:11:21;7.80;99.90
22852;DHT22;11592;45.460;9.240;2023-01-15T06:13:49;7.70;99.90
22852;DHT22;11592;45.460;9.240;2023-01-15T06:16:16;7.70;99.90
22852;DHT22;11592;45.460;9.240;2023-01-15T06:18:44;7.60;99.90
22852;DHT22;11592;45.460;9.240;2023-01-15T06:21:12;7.60;99.90
22852;DHT22;11592;45.460;9.240;2023-01-15T06:23:40;7.60;99.90
22852;DHT22;11592;45.460;9.240;2023-01-15T06:26:17;7.70;99.90
22852;DHT22;11592;45.460;9.240;2023-01-15T06:28:45;7.60;99.90
22852;DHT22;11592;45.460;9.240;2023-01-15T06:31:15;7.60;99.90
22852;DHT22;11592;45.460;9.240;2023-01-15T06:33:42;7.60;99.90
22852;DHT22;11592;45.460;9.240;2023-01-15T06:36:14;7.60;99.90
22852;DHT22;11592;45.460;9.240;2023-01-15T06:38:42;7.60;99.90
22852;DHT22;11592;45.460;9.240;2023-01-15T06:41:15;7.60;99.90
22852;DHT22;11592;45.460;9.240;2023-01-15T06:44:00;7.50;99.90
22852;DHT22;11592;45.460;9.240;2023-01-15T06:46:48;7.50;99.90
22852;DHT22;11592;45.460;9.240;2023-01-15T06:49:34;7.50;99.90
22852;DHT22;11592;45.460;9.240;2023-01-15T06:52:02;7.50;99.90
22852;DHT22;11592;45.460;9.240;2023-01-15T06:54:30;7.50;99.90
22852;DHT22;11592;45.460;9.240;2023-01-15T06:56:57;7.50;99.90
22852;DHT22;11592;45.460;9.240;2023-01-15T06:59:23;7.60;99.90
22852;DHT22;11592;45.460;9.240;2023-01-15T07:01:50;7.60;99.90
22852;DHT22;11592;45.460;9.240;2023-01-15T07:04:17;7.60;99.90
22852;DHT22;11592;45.460;9.240;2023-01-15T07:06:44;7.60;99.90
22852;DHT22;11592;45.460;9.240;2023-01-15T07:09:11;7.60;99.90
22852;DHT22;11592;45.460;9.240;2023-01-15T07:11:38;7.60;99.90
22852;DHT22;11592;45.460;9.240;2023-01-15T07:14:20;7.60;99.90
22852;DHT22;11592;45.460;9.240;2023-01-15T07:16:47;7.60;99.90
22852;DHT22;11592;45.460;9.240;2023-01-15T07:19:15;7.60;99.90
22852;DHT22;11592;45.460;9.240;2023-01-15T07:21:42;7.50;99.90
22852;DHT22;11592;45.460;9.240;2023-01-15T07:24:09;7.50;99.90
22852;DHT22;11592;45.460;9.240;2023-01-15T07:26:36;7.40;99.90
22852;DHT22;11592;45.460;9.240;2023-01-15T07:29:04;7.50;99.90
22852;DHT22;11592;45.460;9.240;2023-01-15T07:31:31;7.50;99.90
22852;DHT22;11592;45.460;9.240;2023-01-15T07:33:58;7.40;99.90
22852;DHT22;11592;45.460;9.240;2023-01-15T07:36:25;7.40;99.90
22852;DHT22;11592;45.460;9.240;2023-01-15T07:38:52;7.40;99.90
22852;DHT22;11592;45.460;9.240;2023-01-15T07:41:20;7.30;99.90
22852;DHT22;11592;45.460;9.240;2023-01-15T07:44:07;7.30;99.90
22852;DHT22;11592;45.460;9.240;2023-01-15T07:46:53;7.30;99.90
22852;DHT22;11592;45.460;9.240;2023-01-15T07:49:41;7.30;99.90
22852;DHT22;11592;45.460;9.240;2023-01-15T07:52:19;7.30;99.90
22852;DHT22;11592;45.460;9.240;2023-01-15T07:54:47;7.30;99.90
22852;DHT22;11592;45.460;9.240;2023-01-15T07:57:18;7.30;99.90
22852;DHT22;11592;45.460;9.240;2023-01-15T07:59:45;7.30;99.90
22852;DHT22;11592;45.460;9.240;2023-01-15T08:02:12;7.20;99.90
22852;DHT22;11592;45.460;9.240;2023-01-15T08:04:39;7.20;99.90
22852;DHT22;11592;45.460;9.240;2023-01-15T08:07:06;7.20;99.90
22852;DHT22;11592;45.460;9.240;2023-01-15T08:09:34;7.20;99.90
22852;DHT22;11592;45.460;9.240;2023-01-15T08:12:02;7.30;99.90
22852;DHT22;11592;45.460;9.240;2023-01-15T08:14:48;7.20;99.90
22852;DHT22;11592;45.460;9.240;2023-01-15T08:17:36;7.30;99.90
22852;DHT22;11592;45.460;9.240;2023-01-15T08:20:06;7.50;99.90
22852;DHT22;11592;45.460;9.240;2023-01-15T08:22:33;7.60;99.90
22852;DHT22;11592;45.460;9.240;2023-01-15T08:25:00;7.50;99.90
22852;DHT22;11592;45.460;9.240;2023-01-15T08:27:27;7.50;99.90
22852;DHT22;11592;45.460;9.240;2023-01-15T08:29:57;7.60;99.90
22852;DHT22;11592;45.460;9.240;2023-01-15T08:32:24;7.60;99.90
22852;DHT22;11592;45.460;9.240;2023-01-15T08:34:51;7.70;99.90
22852;DHT22;11592;45.460;9.240;2023-01-15T08:37:18;7.60;99.90
22852;DHT22;11592;45.460;9.240;2023-01-15T08:39:44;7.60;99.90
22852;DHT22;11592;45.460;9.240;2023-01-15T08:42:11;7.60;99.90
22852;DHT22;11592;45.460;9.240;2023-01-15T08:44:38;7.50;99.90
22852;DHT22;11592;45.460;9.240;2023-01-15T08:47:05;7.50;99.90
22852;DHT22;11592;45.460;9.240;2023-01-15T08:49:32;7.40;99.90
22852;DHT22;11592;45.460;9.240;2023-01-15T08:51:59;7.40;99.90
22852;DHT22;11592;45.460;9.240;2023-01-15T08:54:26;7.40;99.90
22852;DHT22;11592;45.460;9.240;2023-01-15T08:56:53;7.50;99.90
22852;DHT22;11592;45.460;9.240;2023-01-15T08:59:20;7.70;99.90
22852;DHT22;11592;45.460;9.240;2023-01-15T09:01:47;7.60;99.90
22852;DHT22;11592;45.460;9.240;2023-01-15T09:04:16;7.70;99.90
22852;DHT22;11592;45.460;9.240;2023-01-15T09:06:45;7.50;99.90
22852;DHT22;11592;45.460;9.240;2023-01-15T09:09:12;7.40;99.90
22852;DHT22;11592;45.460;9.240;2023-01-15T09:11:41;7.40;99.90
22852;DHT22;11592;45.460;9.240;2023-01-15T09:14:09;7.40;99.90
22852;DHT22;11592;45.460;9.240;2023-01-15T09:16:57;7.50;99.90
22852;DHT22;11592;45.460;9.240;2023-01-15T09:19:24;7.50;99.90
22852;DHT22;11592;45.460;9.240;2023-01-15T09:21:50;7.50;99.90
22852;DHT22;11592;45.460;9.240;2023-01-15T09:24:17;7.50;99.90
22852;DHT22;11592;45.460;9.240;2023-01-15T09:26:44;7.50;99.90
22852;DHT22;11592;45.460;9.240;2023-01-15T09:29:11;7.50;99.90
22852;DHT22;11592;45.460;9.240;2023-01-15T09:31:37;7.50;99.90
22852;DHT22;11592;45.460;9.240;2023-01-15T09:34:04;7.60;99.90
22852;DHT22;11592;45.460;9.240;2023-01-15T09:36:33;7.60;99.90
22852;DHT22;11592;45.460;9.240;2023-01-15T09:39:01;7.50;99.90
22852;DHT22;11592;45.460;9.240;2023-01-15T09:45:02;7.60;99.90
22852;DHT22;11592;45.460;9.240;2023-01-15T09:47:52;7.70;99.90
22852;DHT22;11592;45.460;9.240;2023-01-15T09:53:46;7.40;99.90
22852;DHT22;11592;45.460;9.240;2023-01-15T09:56:22;7.50;99.90
22852;DHT22;11592;45.460;9.240;2023-01-15T09:58:51;7.60;99.90
22852;DHT22;11592;45.460;9.240;2023-01-15T10:01:23;7.70;99.90
22852;DHT22;11592;45.460;9.240;2023-01-15T10:07:28;7.90;99.90
22852;DHT22;11592;45.460;9.240;2023-01-15T10:10:09;7.90;99.90
22852;DHT22;11592;45.460;9.240;2023-01-15T10:12:37;7.70;99.90
22852;DHT22;11592;45.460;9.240;2023-01-15T10:17:54;7.70;99.90
22852;DHT22;11592;45.460;9.240;2023-01-15T10:25:50;7.60;99.90
22852;DHT22;11592;45.460;9.240;2023-01-15T10:28:25;7.60;99.90
22852;DHT22;11592;45.460;9.240;2023-01-15T10:30:55;7.60;99.90
22852;DHT22;11592;45.460;9.240;2023-01-15T10:36:21;7.60;99.90
22852;DHT22;11592;45.460;9.240;2023-01-15T10:41:47;7.70;99.90
22852;DHT22;11592;45.460;9.240;2023-01-15T10:44:58;7.70;99.90
22852;DHT22;11592;45.460;9.240;2023-01-15T10:47:19;7.70;99.90
22852;DHT22;11592;45.460;9.240;2023-01-15T10:49:48;7.80;99.90
22852;DHT22;11592;45.460;9.240;2023-01-15T10:52:30;7.80;99.90
22852;DHT22;11592;45.460;9.240;2023-01-15T11:00:59;7.60;99.90
22852;DHT22;11592;45.460;9.240;2023-01-15T11:03:36;7.70;99.90
22852;DHT22;11592;45.460;9.240;2023-01-15T11:06:06;7.70;99.90
22852;DHT22;11592;45.460;9.240;2023-01-15T11:08:39;7.70;99.90
22852;DHT22;11592;45.460;9.240;2023-01-15T11:11:43;7.70;99.90
22852;DHT22;11592;45.460;9.240;2023-01-15T11:14:40;7.80;99.90
22852;DHT22;11592;45.460;9.240;2023-01-15T11:17:34;7.90;99.90
22852;DHT22;11592;45.460;9.240;2023-01-15T11:21:08;8.00;99.90
22852;DHT22;11592;45.460;9.240;2023-01-15T11:23:18;8.10;99.90
22852;DHT22;11592;45.460;9.240;2023-01-15T11:25:55;8.20;99.90
22852;DHT22;11592;45.460;9.240;2023-01-15T11:28:43;8.20;99.90
22852;DHT22;11592;45.460;9.240;2023-01-15T11:31:13;8.20;99.90
22852;DHT22;11592;45.460;9.240;2023-01-15T11:34:05;8.40;99.90
22852;DHT22;11592;45.460;9.240;2023-01-15T11:36:31;8.50;99.90
22852;DHT22;11592;45.460;9.240;2023-01-15T11:38:58;8.60;99.90
22852;DHT22;11592;45.460;9.240;2023-01-15T11:44:13;8.60;99.90
22852;DHT22;11592;45.460;9.240;2023-01-15T11:46:58;8.60;99.90
22852;DHT22;11592;45.460;9.240;2023-01-15T11:49:54;8.50;99.90
22852;DHT22;11592;45.460;9.240;2023-01-15T11:52:46;8.60;99.90
22852;DHT22;11592;45.460;9.240;2023-01-15T11:55:18;8.60;99.90
22852;DHT22;11592;45.460;9.240;2023-01-15T11:57:46;8.50;99.90
22852;DHT22;11592;45.460;9.240;2023-01-15T12:00:26;8.60;99.90
22852;DHT22;11592;45.460;9.240;2023-01-15T12:02:58;8.70;99.90
22852;DHT22;11592;45.460;9.240;2023-01-15T12:05:34;8.70;99.90
22852;DHT22;11592;45.460;9.240;2023-01-15T12:08:09;8.80;99.90
22852;DHT22;11592;45.460;9.240;2023-01-15T12:10:48;8.70;99.90
22852;DHT22;11592;45.460;9.240;2023-01-15T12:14:10;8.60;99.90
22852;DHT22;11592;45.460;9.240;2023-01-15T12:19:27;8.40;99.90
22852;DHT22;11592;45.460;9.240;2023-01-15T12:22:41;8.50;99.90
22852;DHT22;11592;45.460;9.240;2023-01-15T12:28:38;8.60;99.90
22852;DHT22;11592;45.460;9.240;2023-01-15T12:31:10;8.70;99.90
22852;DHT22;11592;45.460;9.240;2023-01-15T12:34:02;8.60;99.90
22852;DHT22;11592;45.460;9.240;2023-01-15T12:36:37;8.50;99.90
22852;DHT22;11592;45.460;9.240;2023-01-15T12:39:29;8.40;99.90
22852;DHT22;11592;45.460;9.240;2023-01-15T12:42:01;8.60;99.90
22852;DHT22;11592;45.460;9.240;2023-01-15T12:44:51;8.60;99.90
22852;DHT22;11592;45.460;9.240;2023-01-15T12:53:24;8.40;99.90
22852;DHT22;11592;45.460;9.240;2023-01-15T12:58:53;8.50;99.90
22852;DHT22;11592;45.460;9.240;2023-01-15T13:04:12;8.50;99.90
22852;DHT22;11592;45.460;9.240;2023-01-15T13:06:46;8.50;99.90
22852;DHT22;11592;45.460;9.240;2023-01-15T13:12:01;8.40;99.90
22852;DHT22;11592;45.460;9.240;2023-01-15T13:14:28;8.40;99.90
22852;DHT22;11592;45.460;9.240;2023-01-15T13:17:24;8.40;99.90
22852;DHT22;11592;45.460;9.240;2023-01-15T13:22:49;8.40;99.90
22852;DHT22;11592;45.460;9.240;2023-01-15T13:28:25;8.40;99.90
22852;DHT22;11592;45.460;9.240;2023-01-15T13:34:00;8.50;99.90
22852;DHT22;11592;45.460;9.240;2023-01-15T13:36:41;8.70;99.90
22852;DHT22;11592;45.460;9.240;2023-01-15T13:39:21;8.60;99.90
22852;DHT22;11592;45.460;9.240;2023-01-15T13:41:52;8.60;99.90
22852;DHT22;11592;45.460;9.240;2023-01-15T13:44:49;8.60;99.90
22852;DHT22;11592;45.460;9.240;2023-01-15T13:47:23;8.60;99.90
22852;DHT22;11592;45.460;9.240;2023-01-15T13:49:56;8.70;99.90
22852;DHT22;11592;45.460;9.240;2023-01-15T13:52:32;8.80;99.90
22852;DHT22;11592;45.460;9.240;2023-01-15T13:57:38;8.70;99.90
22852;DHT22;11592;45.460;9.240;2023-01-15T14:00:24;8.90;99.90
22852;DHT22;11592;45.460;9.240;2023-01-15T14:02:57;8.90;99.90
22852;DHT22;11592;45.460;9.240;2023-01-15T14:05:33;8.80;99.90
22852;DHT22;11592;45.460;9.240;2023-01-15T14:08:02;8.70;99.90
22852;DHT22;11592;45.460;9.240;2023-01-15T14:10:39;8.70;99.90
22852;DHT22;11592;45.460;9.240;2023-01-15T14:18:39;8.90;99.90
22852;DHT22;11592;45.460;9.240;2023-01-15T14:27:01;8.90;99.90
22852;DHT22;11592;45.460;9.240;2023-01-15T14:35:19;8.80;99.90
22852;DHT22;11592;45.460;9.240;2023-01-15T14:37:56;8.80;99.90
22852;DHT22;11592;45.460;9.240;2023-01-15T14:40:30;8.80;99.90
22852;DHT22;11592;45.460;9.240;2023-01-15T14:43:01;8.80;99.90
22852;DHT22;11592;45.460;9.240;2023-01-15T14:45:37;8.70;99.90
22852;DHT22;11592;45.460;9.240;2023-01-15T14:51:13;8.80;99.90
22852;DHT22;11592;45.460;9.240;2023-01-15T14:53:47;8.90;99.90
22852;DHT22;11592;45.460;9.240;2023-01-15T15:06:25;8.90;99.90
22852;DHT22;11592;45.460;9.240;2023-01-15T15:09:01;8.90;99.90
22852;DHT22;11592;45.460;9.240;2023-01-15T15:11:38;8.90;99.90
22852;DHT22;11592;45.460;9.240;2023-01-15T15:14:25;8.90;99.90
22852;DHT22;11592;45.460;9.240;2023-01-15T15:16:57;8.80;99.90
22852;DHT22;11592;45.460;9.240;2023-01-15T15:19:27;8.80;99.90
22852;DHT22;11592;45.460;9.240;2023-01-15T15:21:57;8.80;99.90
22852;DHT22;11592;45.460;9.240;2023-01-15T15:24:28;8.80;99.90
22852;DHT22;11592;45.460;9.240;2023-01-15T15:27:14;8.90;99.90
22852;DHT22;11592;45.460;9.240;2023-01-15T15:29:42;8.90;99.90
22852;DHT22;11592;45.460;9.240;2023-01-15T15:32:16;9.00;99.90
22852;DHT22;11592;45.460;9.240;2023-01-15T15:34:46;9.00;99.90
22852;DHT22;11592;45.460;9.240;2023-01-15T15:37:18;9.00;99.90
22852;DHT22;11592;45.460;9.240;2023-01-15T15:42:27;8.90;99.90
22852;DHT22;11592;45.460;9.240;2023-01-15T15:45:21;8.90;99.90
22852;DHT22;11592;45.460;9.240;2023-01-15T15:48:12;8.70;99.90
22852;DHT22;11592;45.460;9.240;2023-01-15T15:50:58;8.60;99.90
22852;DHT22;11592;45.460;9.240;2023-01-15T15:53:25;8.70;99.90
22852;DHT22;11592;45.460;9.240;2023-01-15T15:55:53;8.70;99.90
22852;DHT22;11592;45.460;9.240;2023-01-15T15:58:28;8.70;99.90
22852;DHT22;11592;45.460;9.240;2023-01-15T16:00:56;8.60;99.90
22852;DHT22;11592;45.460;9.240;2023-01-15T16:07:28;8.80;99.90
22852;DHT22;11592;45.460;9.240;2023-01-15T16:10:11;8.70;99.90
22852;DHT22;11592;45.460;9.240;2023-01-15T16:12:47;8.60;99.90
22852;DHT22;11592;45.460;9.240;2023-01-15T16:15:17;8.70;99.90
22852;DHT22;11592;45.460;9.240;2023-01-15T16:17:45;8.70;99.90
22852;DHT22;11592;45.460;9.240;2023-01-15T16:20:17;8.70;99.90
22852;DHT22;11592;45.460;9.240;2023-01-15T16:25:25;8.60;99.90
22852;DHT22;11592;45.460;9.240;2023-01-15T16:27:53;8.60;99.90
22852;DHT22;11592;45.460;9.240;2023-01-15T16:30:20;8.50;99.90
22852;DHT22;11592;45.460;9.240;2023-01-15T16:32:47;8.60;99.90
22852;DHT22;11592;45.460;9.240;2023-01-15T16:35:18;8.40;99.90
22852;DHT22;11592;45.460;9.240;2023-01-15T16:37:56;8.40;99.90
22852;DHT22;11592;45.460;9.240;2023-01-15T16:43:14;8.60;99.90
22852;DHT22;11592;45.460;9.240;2023-01-15T16:48:36;8.40;99.90
22852;DHT22;11592;45.460;9.240;2023-01-15T16:51:34;8.30;99.90
22852;DHT22;11592;45.460;9.240;2023-01-15T16:54:03;8.30;99.90
22852;DHT22;11592;45.460;9.240;2023-01-15T16:59:04;8.40;99.90
22852;DHT22;11592;45.460;9.240;2023-01-15T17:01:42;8.50;99.90
22852;DHT22;11592;45.460;9.240;2023-01-15T17:04:27;8.40;99.90
22852;DHT22;11592;45.460;9.240;2023-01-15T17:07:01;8.40;99.90
22852;DHT22;11592;45.460;9.240;2023-01-15T17:09:34;8.40;99.90
22852;DHT22;11592;45.460;9.240;2023-01-15T17:12:35;8.50;99.90
22852;DHT22;11592;45.460;9.240;2023-01-15T17:17:50;8.40;99.90
22852;DHT22;11592;45.460;9.240;2023-01-15T17:20:18;8.40;99.90
22852;DHT22;11592;45.460;9.240;2023-01-15T17:22:47;7.90;99.90
22852;DHT22;11592;45.460;9.240;2023-01-15T17:25:27;8.40;99.90
22852;DHT22;11592;45.460;9.240;2023-01-15T17:27:58;8.70;99.90
22852;DHT22;11592;45.460;9.240;2023-01-15T17:30:26;8.40;99.90
22852;DHT22;11592;45.460;9.240;2023-01-15T17:33:01;8.50;99.90
22852;DHT22;11592;45.460;9.240;2023-01-15T17:35:34;8.40;99.90
22852;DHT22;11592;45.460;9.240;2023-01-15T17:38:01;8.40;99.90
22852;DHT22;11592;45.460;9.240;2023-01-15T17:40:28;8.30;99.90
22852;DHT22;11592;45.460;9.240;2023-01-15T17:42:55;8.30;99.90
22852;DHT22;11592;45.460;9.240;2023-01-15T17:45:29;8.30;99.90
22852;DHT22;11592;45.460;9.240;2023-01-15T17:47:56;8.30;99.90
22852;DHT22;11592;45.460;9.240;2023-01-15T17:50:24;8.30;99.90
22852;DHT22;11592;45.460;9.240;2023-01-15T17:52:51;8.30;99.90
22852;DHT22;11592;45.460;9.240;2023-01-15T17:55:20;8.30;99.90
22852;DHT22;11592;45.460;9.240;2023-01-15T17:58:10;8.40;99.90
22852;DHT22;11592;45.460;9.240;2023-01-15T18:00:56;8.20;99.90
22852;DHT22;11592;45.460;9.240;2023-01-15T18:03:48;8.10;99.90
22852;DHT22;11592;45.460;9.240;2023-01-15T18:06:34;8.20;99.90
22852;DHT22;11592;45.460;9.240;2023-01-15T18:09:03;8.20;99.90
22852;DHT22;11592;45.460;9.240;2023-01-15T18:11:31;8.30;99.90
22852;DHT22;11592;45.460;9.240;2023-01-15T18:13:57;8.30;99.90
22852;DHT22;11592;45.460;9.240;2023-01-15T18:16:25;8.30;99.90
22852;DHT22;11592;45.460;9.240;2023-01-15T18:18:53;8.20;99.90
22852;DHT22;11592;45.460;9.240;2023-01-15T18:21:20;8.30;99.90
22852;DHT22;11592;45.460;9.240;2023-01-15T18:23:47;8.40;99.90
22852;DHT22;11592;45.460;9.240;2023-01-15T18:26:14;8.30;99.90
22852;DHT22;11592;45.460;9.240;2023-01-15T18:28:41;8.30;99.90
22852;DHT22;11592;45.460;9.240;2023-01-15T18:31:08;8.30;99.90
22852;DHT22;11592;45.460;9.240;2023-01-15T18:33:36;8.30;99.90